首页
METAR-TAF:

METAR-TAF

机场 :

San Angelo Regional Airport (Mathis Field)

San Angelo, 得克萨斯州, 美国

纬度: 31-21-05N, 经度: 100-29-38W, 海拔: 584米

当前天气观测

该预报发布于23分钟前的10:51 UTC
静风
温度 6°C
湿度 81%
气压 1029 hPa
能見度: 16.1公里
阴天层高于700英尺

METAR: KSJT 111051Z AUTO 00000KT 10SM OVC007 06/03 A3040 RMK AO2 SLP299 T00560033

时间: 05:14 (11:14 UTC)

预报

该预报发布于2小时和40分钟前的08:34 UTC
预报有效从11日的 09点(UTC)到 12日的 06点(UTC)
风速3节,风向
能見度: 10公里
阴天层高于500英尺
短暂存在
从 11日的 10点(UTC)到 11日的 14点(UTC)
能見度: 6.4公里
阴天层高于300英尺
轻雾
从 11日的 1500点(UTC)
风速6节,风向
能見度: 8.0公里
多云层高于900英尺
轻雾
从 11日的 1730点(UTC)
风速9节,风向
能見度: 10公里
散云层高于3000英尺
从 12日的 0000点(UTC)
风速7节,风向南转南东
能見度: 10公里
天空无云

TAF: KSJT 110834Z 1109/1206 18003KT P6SM OVC005 TEMPO 1110/1114 4SM BR OVC003 FM111500 18006KT 5SM BR BKN009 FM111730 18009KT P6SM SCT030 FM120000 15007KT P6SM SKC

超过4000个机场的气象观测和天气预报(METAR&TAF报告)。

可查询的气象台以黄色和红色小点在地图上表示。

将鼠标移到小点上方,可查看气象台名称。

然后点击查看天气观测和预报。

如需切换地图:点击带黑十字的绿色按钮放大地图;点击带横线的绿色按钮缩小地图;或者点击绿色箭头查看邻近地区的地图。


METAR-TAF: